sensor_id;sensor_type;location;lat;lon;timestamp;temperature;humidity
24217;DHT22;12356;49.386;8.688;2022-12-24T00:00:49;11.50;93.30
24217;DHT22;12356;49.386;8.688;2022-12-24T00:03:24;11.50;93.60
24217;DHT22;12356;49.386;8.688;2022-12-24T00:05:55;11.60;93.80
24217;DHT22;12356;49.386;8.688;2022-12-24T00:08:25;11.60;93.60
24217;DHT22;12356;49.386;8.688;2022-12-24T00:10:56;11.60;93.90
24217;DHT22;12356;49.386;8.688;2022-12-24T00:13:27;11.50;95.20
24217;DHT22;12356;49.386;8.688;2022-12-24T00:15:58;11.60;95.70
24217;DHT22;12356;49.386;8.688;2022-12-24T00:18:28;11.60;95.60
24217;DHT22;12356;49.386;8.688;2022-12-24T00:20:59;11.60;95.20
24217;DHT22;12356;49.386;8.688;2022-12-24T00:23:33;11.60;95.00
24217;DHT22;12356;49.386;8.688;2022-12-24T00:26:04;11.60;95.00
24217;DHT22;12356;49.386;8.688;2022-12-24T00:28:34;11.60;94.90
24217;DHT22;12356;49.386;8.688;2022-12-24T00:31:13;11.60;95.00
24217;DHT22;12356;49.386;8.688;2022-12-24T00:33:45;11.60;94.70
24217;DHT22;12356;49.386;8.688;2022-12-24T00:36:17;11.60;95.10
24217;DHT22;12356;49.386;8.688;2022-12-24T00:38:48;11.60;95.30
24217;DHT22;12356;49.386;8.688;2022-12-24T00:41:19;11.80;95.40
24217;DHT22;12356;49.386;8.688;2022-12-24T00:44:00;11.60;95.20
24217;DHT22;12356;49.386;8.688;2022-12-24T00:46:33;11.60;94.90
24217;DHT22;12356;49.386;8.688;2022-12-24T00:49:04;11.60;94.70
24217;DHT22;12356;49.386;8.688;2022-12-24T00:51:35;11.70;94.80
24217;DHT22;12356;49.386;8.688;2022-12-24T00:54:06;11.60;94.40
24217;DHT22;12356;49.386;8.688;2022-12-24T00:56:37;11.60;93.70
24217;DHT22;12356;49.386;8.688;2022-12-24T00:59:08;11.70;93.20
24217;DHT22;12356;49.386;8.688;2022-12-24T01:01:40;11.60;92.80
24217;DHT22;12356;49.386;8.688;2022-12-24T01:04:10;11.70;92.30
24217;DHT22;12356;49.386;8.688;2022-12-24T01:07:00;11.70;92.10
24217;DHT22;12356;49.386;8.688;2022-12-24T01:09:30;11.60;92.20
24217;DHT22;12356;49.386;8.688;2022-12-24T01:12:01;11.60;92.00
24217;DHT22;12356;49.386;8.688;2022-12-24T01:14:31;11.50;92.10
24217;DHT22;12356;49.386;8.688;2022-12-24T01:17:03;11.60;91.60
24217;DHT22;12356;49.386;8.688;2022-12-24T01:19:34;11.50;88.60
24217;DHT22;12356;49.386;8.688;2022-12-24T01:22:04;11.50;88.20
24217;DHT22;12356;49.386;8.688;2022-12-24T01:24:35;11.50;86.60
24217;DHT22;12356;49.386;8.688;2022-12-24T01:27:06;11.50;86.90
24217;DHT22;12356;49.386;8.688;2022-12-24T01:29:36;11.50;87.70
24217;DHT22;12356;49.386;8.688;2022-12-24T01:32:08;11.50;86.80
24217;DHT22;12356;49.386;8.688;2022-12-24T01:34:39;11.50;87.50
24217;DHT22;12356;49.386;8.688;2022-12-24T01:37:11;11.50;86.80
24217;DHT22;12356;49.386;8.688;2022-12-24T01:39:41;11.50;86.20
24217;DHT22;12356;49.386;8.688;2022-12-24T01:42:17;11.50;88.20
24217;DHT22;12356;49.386;8.688;2022-12-24T01:45:46;11.50;88.90
24217;DHT22;12356;49.386;8.688;2022-12-24T01:54:02;11.30;89.80
24217;DHT22;12356;49.386;8.688;2022-12-24T01:56:37;11.30;89.80
24217;DHT22;12356;49.386;8.688;2022-12-24T01:59:12;11.20;90.10
24217;DHT22;12356;49.386;8.688;2022-12-24T02:01:45;11.10;90.20
24217;DHT22;12356;49.386;8.688;2022-12-24T02:07:02;11.00;90.20
24217;DHT22;12356;49.386;8.688;2022-12-24T02:09:34;11.00;89.80
24217;DHT22;12356;49.386;8.688;2022-12-24T02:12:05;11.00;89.40
24217;DHT22;12356;49.386;8.688;2022-12-24T02:14:37;11.00;88.70
24217;DHT22;12356;49.386;8.688;2022-12-24T02:34:29;10.90;87.80
24217;DHT22;12356;49.386;8.688;2022-12-24T02:37:12;11.00;86.80
24217;DHT22;12356;49.386;8.688;2022-12-24T02:39:56;10.90;83.70
24217;DHT22;12356;49.386;8.688;2022-12-24T02:42:36;10.90;84.40
24217;DHT22;12356;49.386;8.688;2022-12-24T02:45:10;11.00;84.30
24217;DHT22;12356;49.386;8.688;2022-12-24T02:47:44;10.90;85.10
24217;DHT22;12356;49.386;8.688;2022-12-24T02:50:17;10.90;84.30
24217;DHT22;12356;49.386;8.688;2022-12-24T02:52:48;10.90;83.60
24217;DHT22;12356;49.386;8.688;2022-12-24T02:55:21;10.90;84.50
24217;DHT22;12356;49.386;8.688;2022-12-24T03:00:23;10.90;86.40
24217;DHT22;12356;49.386;8.688;2022-12-24T03:05:54;10.80;88.20
24217;DHT22;12356;49.386;8.688;2022-12-24T03:11:08;10.80;87.30
24217;DHT22;12356;49.386;8.688;2022-12-24T03:13:41;10.80;87.10
24217;DHT22;12356;49.386;8.688;2022-12-24T03:16:15;10.80;87.20
24217;DHT22;12356;49.386;8.688;2022-12-24T03:18:48;10.80;87.20
24217;DHT22;12356;49.386;8.688;2022-12-24T03:21:39;10.80;87.10
24217;DHT22;12356;49.386;8.688;2022-12-24T03:24:11;10.80;86.80
24217;DHT22;12356;49.386;8.688;2022-12-24T03:26:44;10.90;86.80
24217;DHT22;12356;49.386;8.688;2022-12-24T03:29:16;10.80;86.60
24217;DHT22;12356;49.386;8.688;2022-12-24T03:31:49;10.80;86.60
24217;DHT22;12356;49.386;8.688;2022-12-24T03:34:20;10.70;86.30
24217;DHT22;12356;49.386;8.688;2022-12-24T03:36:51;10.70;85.90
24217;DHT22;12356;49.386;8.688;2022-12-24T03:39:22;10.80;85.90
24217;DHT22;12356;49.386;8.688;2022-12-24T03:41:53;10.80;86.20
24217;DHT22;12356;49.386;8.688;2022-12-24T03:44:23;10.80;86.50
24217;DHT22;12356;49.386;8.688;2022-12-24T03:46:54;10.70;86.50
24217;DHT22;12356;49.386;8.688;2022-12-24T03:49:25;10.70;86.50
24217;DHT22;12356;49.386;8.688;2022-12-24T03:51:56;10.80;86.70
24217;DHT22;12356;49.386;8.688;2022-12-24T03:54:26;10.80;87.10
24217;DHT22;12356;49.386;8.688;2022-12-24T03:57:00;10.80;87.10
24217;DHT22;12356;49.386;8.688;2022-12-24T03:59:30;10.70;86.60
24217;DHT22;12356;49.386;8.688;2022-12-24T04:02:01;10.70;87.20
24217;DHT22;12356;49.386;8.688;2022-12-24T04:04:32;10.70;87.60
24217;DHT22;12356;49.386;8.688;2022-12-24T04:07:06;10.70;87.90
24217;DHT22;12356;49.386;8.688;2022-12-24T04:09:36;10.70;88.00
24217;DHT22;12356;49.386;8.688;2022-12-24T04:12:08;10.70;87.60
24217;DHT22;12356;49.386;8.688;2022-12-24T04:14:39;10.70;88.60
24217;DHT22;12356;49.386;8.688;2022-12-24T04:17:09;10.70;88.50
24217;DHT22;12356;49.386;8.688;2022-12-24T04:19:40;10.70;88.50
24217;DHT22;12356;49.386;8.688;2022-12-24T04:22:12;10.70;89.10
24217;DHT22;12356;49.386;8.688;2022-12-24T04:24:43;10.80;89.40
24217;DHT22;12356;49.386;8.688;2022-12-24T04:27:14;10.70;89.70
24217;DHT22;12356;49.386;8.688;2022-12-24T04:29:45;10.70;89.70
24217;DHT22;12356;49.386;8.688;2022-12-24T04:32:15;10.70;89.60
24217;DHT22;12356;49.386;8.688;2022-12-24T04:34:46;10.70;90.10
24217;DHT22;12356;49.386;8.688;2022-12-24T04:37:17;10.70;90.00
24217;DHT22;12356;49.386;8.688;2022-12-24T04:39:47;10.70;89.90
24217;DHT22;12356;49.386;8.688;2022-12-24T04:42:18;10.80;90.20
24217;DHT22;12356;49.386;8.688;2022-12-24T04:44:48;10.80;90.20
24217;DHT22;12356;49.386;8.688;2022-12-24T04:47:19;10.70;90.10
24217;DHT22;12356;49.386;8.688;2022-12-24T04:49:50;10.80;90.30
24217;DHT22;12356;49.386;8.688;2022-12-24T04:52:20;10.80;90.30
24217;DHT22;12356;49.386;8.688;2022-12-24T04:54:51;10.80;90.10
24217;DHT22;12356;49.386;8.688;2022-12-24T04:57:22;10.80;90.20
24217;DHT22;12356;49.386;8.688;2022-12-24T04:59:52;10.80;90.30
24217;DHT22;12356;49.386;8.688;2022-12-24T05:02:23;10.80;90.30
24217;DHT22;12356;49.386;8.688;2022-12-24T05:04:54;10.90;90.30
24217;DHT22;12356;49.386;8.688;2022-12-24T05:07:25;10.80;90.30
24217;DHT22;12356;49.386;8.688;2022-12-24T05:09:55;10.90;90.50
24217;DHT22;12356;49.386;8.688;2022-12-24T05:12:27;10.90;90.60
24217;DHT22;12356;49.386;8.688;2022-12-24T05:14:58;11.00;90.70
24217;DHT22;12356;49.386;8.688;2022-12-24T05:17:28;10.90;90.80
24217;DHT22;12356;49.386;8.688;2022-12-24T05:19:59;10.90;90.80
24217;DHT22;12356;49.386;8.688;2022-12-24T05:22:30;11.00;91.10
24217;DHT22;12356;49.386;8.688;2022-12-24T05:25:19;11.00;90.80
24217;DHT22;12356;49.386;8.688;2022-12-24T05:28:08;11.00;90.70
24217;DHT22;12356;49.386;8.688;2022-12-24T05:30:39;10.90;90.50
24217;DHT22;12356;49.386;8.688;2022-12-24T05:33:09;11.00;90.60
24217;DHT22;12356;49.386;8.688;2022-12-24T05:35:40;10.90;90.50
24217;DHT22;12356;49.386;8.688;2022-12-24T05:38:11;10.90;90.30
24217;DHT22;12356;49.386;8.688;2022-12-24T05:40:42;10.90;90.20
24217;DHT22;12356;49.386;8.688;2022-12-24T05:43:12;10.90;90.40
24217;DHT22;12356;49.386;8.688;2022-12-24T05:45:43;10.90;90.50
24217;DHT22;12356;49.386;8.688;2022-12-24T05:48:15;10.90;90.70
24217;DHT22;12356;49.386;8.688;2022-12-24T05:50:45;10.80;90.60
24217;DHT22;12356;49.386;8.688;2022-12-24T05:53:16;10.90;90.60
24217;DHT22;12356;49.386;8.688;2022-12-24T05:55:47;10.90;90.70
24217;DHT22;12356;49.386;8.688;2022-12-24T05:58:18;11.00;90.40
24217;DHT22;12356;49.386;8.688;2022-12-24T06:00:51;11.00;90.50
24217;DHT22;12356;49.386;8.688;2022-12-24T06:03:22;10.90;90.40
24217;DHT22;12356;49.386;8.688;2022-12-24T06:06:05;11.00;90.80
24217;DHT22;12356;49.386;8.688;2022-12-24T06:08:38;11.00;90.30
24217;DHT22;12356;49.386;8.688;2022-12-24T06:11:09;11.00;90.20
24217;DHT22;12356;49.386;8.688;2022-12-24T06:13:41;11.10;90.20
24217;DHT22;12356;49.386;8.688;2022-12-24T06:16:14;11.10;90.10
24217;DHT22;12356;49.386;8.688;2022-12-24T06:18:46;11.10;90.20
24217;DHT22;12356;49.386;8.688;2022-12-24T06:21:17;11.10;90.00
24217;DHT22;12356;49.386;8.688;2022-12-24T06:23:48;11.10;90.20
24217;DHT22;12356;49.386;8.688;2022-12-24T06:26:20;11.10;90.10
24217;DHT22;12356;49.386;8.688;2022-12-24T06:28:51;11.10;90.10
24217;DHT22;12356;49.386;8.688;2022-12-24T06:31:22;11.10;90.00
24217;DHT22;12356;49.386;8.688;2022-12-24T06:33:53;11.20;90.00
24217;DHT22;12356;49.386;8.688;2022-12-24T06:36:25;11.10;89.50
24217;DHT22;12356;49.386;8.688;2022-12-24T06:38:57;11.00;89.50
24217;DHT22;12356;49.386;8.688;2022-12-24T06:41:28;11.00;89.50
24217;DHT22;12356;49.386;8.688;2022-12-24T06:43:59;11.00;89.40
24217;DHT22;12356;49.386;8.688;2022-12-24T06:46:29;11.00;89.40
24217;DHT22;12356;49.386;8.688;2022-12-24T06:49:00;11.10;89.40
24217;DHT22;12356;49.386;8.688;2022-12-24T06:51:31;11.00;89.20
24217;DHT22;12356;49.386;8.688;2022-12-24T06:54:01;11.00;89.20
24217;DHT22;12356;49.386;8.688;2022-12-24T06:56:33;11.00;89.40
24217;DHT22;12356;49.386;8.688;2022-12-24T06:59:04;11.00;89.30
24217;DHT22;12356;49.386;8.688;2022-12-24T07:01:34;11.00;89.40
24217;DHT22;12356;49.386;8.688;2022-12-24T07:04:05;11.10;89.30
24217;DHT22;12356;49.386;8.688;2022-12-24T07:06:36;11.10;89.20
24217;DHT22;12356;49.386;8.688;2022-12-24T07:09:11;11.10;89.20
24217;DHT22;12356;49.386;8.688;2022-12-24T07:11:42;11.10;89.00
24217;DHT22;12356;49.386;8.688;2022-12-24T07:14:13;11.10;88.50
24217;DHT22;12356;49.386;8.688;2022-12-24T07:16:44;11.20;88.40
24217;DHT22;12356;49.386;8.688;2022-12-24T07:19:14;11.10;88.00
24217;DHT22;12356;49.386;8.688;2022-12-24T07:21:45;11.10;87.60
24217;DHT22;12356;49.386;8.688;2022-12-24T07:24:16;11.10;87.10
24217;DHT22;12356;49.386;8.688;2022-12-24T07:26:47;11.10;86.90
24217;DHT22;12356;49.386;8.688;2022-12-24T07:29:18;11.10;86.50
24217;DHT22;12356;49.386;8.688;2022-12-24T07:31:48;11.10;86.20
24217;DHT22;12356;49.386;8.688;2022-12-24T07:34:19;11.10;85.70
24217;DHT22;12356;49.386;8.688;2022-12-24T07:36:49;11.20;85.10
24217;DHT22;12356;49.386;8.688;2022-12-24T07:39:20;11.20;84.60
24217;DHT22;12356;49.386;8.688;2022-12-24T07:41:52;11.20;84.70
24217;DHT22;12356;49.386;8.688;2022-12-24T07:44:23;11.20;83.90
24217;DHT22;12356;49.386;8.688;2022-12-24T07:46:54;11.20;83.40
24217;DHT22;12356;49.386;8.688;2022-12-24T07:49:25;11.20;82.90
24217;DHT22;12356;49.386;8.688;2022-12-24T07:51:55;11.20;82.30
24217;DHT22;12356;49.386;8.688;2022-12-24T07:54:26;11.20;82.30
24217;DHT22;12356;49.386;8.688;2022-12-24T07:56:57;11.20;82.50
24217;DHT22;12356;49.386;8.688;2022-12-24T07:59:27;11.20;82.40
24217;DHT22;12356;49.386;8.688;2022-12-24T08:01:58;11.20;82.30
24217;DHT22;12356;49.386;8.688;2022-12-24T08:04:31;11.20;82.60
24217;DHT22;12356;49.386;8.688;2022-12-24T08:07:06;11.20;82.40
24217;DHT22;12356;49.386;8.688;2022-12-24T08:09:37;11.20;82.20
24217;DHT22;12356;49.386;8.688;2022-12-24T08:12:09;11.20;82.20
24217;DHT22;12356;49.386;8.688;2022-12-24T08:14:39;11.30;82.20
24217;DHT22;12356;49.386;8.688;2022-12-24T08:17:10;11.30;82.50
24217;DHT22;12356;49.386;8.688;2022-12-24T08:19:41;11.30;82.80
24217;DHT22;12356;49.386;8.688;2022-12-24T08:22:13;11.30;82.50
24217;DHT22;12356;49.386;8.688;2022-12-24T08:24:44;11.30;81.60
24217;DHT22;12356;49.386;8.688;2022-12-24T08:27:15;11.30;82.00
24217;DHT22;12356;49.386;8.688;2022-12-24T08:29:45;11.30;82.50
24217;DHT22;12356;49.386;8.688;2022-12-24T08:32:17;11.40;82.10
24217;DHT22;12356;49.386;8.688;2022-12-24T08:34:47;11.30;82.00
24217;DHT22;12356;49.386;8.688;2022-12-24T08:37:18;11.40;82.40
24217;DHT22;12356;49.386;8.688;2022-12-24T08:39:49;11.30;82.90
24217;DHT22;12356;49.386;8.688;2022-12-24T08:42:19;11.40;83.50
24217;DHT22;12356;49.386;8.688;2022-12-24T08:44:50;11.40;83.70
24217;DHT22;12356;49.386;8.688;2022-12-24T08:47:20;11.30;82.80
24217;DHT22;12356;49.386;8.688;2022-12-24T08:49:51;11.40;82.60
24217;DHT22;12356;49.386;8.688;2022-12-24T08:52:22;11.40;82.40
24217;DHT22;12356;49.386;8.688;2022-12-24T08:54:52;11.50;82.10
24217;DHT22;12356;49.386;8.688;2022-12-24T08:57:23;11.50;82.50
24217;DHT22;12356;49.386;8.688;2022-12-24T08:59:55;11.50;82.10
24217;DHT22;12356;49.386;8.688;2022-12-24T09:02:27;11.60;82.20
24217;DHT22;12356;49.386;8.688;2022-12-24T09:04:57;11.60;82.20
24217;DHT22;12356;49.386;8.688;2022-12-24T09:07:28;11.60;81.30
24217;DHT22;12356;49.386;8.688;2022-12-24T09:09:59;11.70;80.00
24217;DHT22;12356;49.386;8.688;2022-12-24T09:12:29;11.60;79.20
24217;DHT22;12356;49.386;8.688;2022-12-24T09:15:00;11.70;79.90
24217;DHT22;12356;49.386;8.688;2022-12-24T09:17:31;11.70;79.10
24217;DHT22;12356;49.386;8.688;2022-12-24T09:20:03;11.70;77.30
24217;DHT22;12356;49.386;8.688;2022-12-24T09:22:35;11.70;76.90
24217;DHT22;12356;49.386;8.688;2022-12-24T09:25:06;11.80;76.80
24217;DHT22;12356;49.386;8.688;2022-12-24T09:27:39;11.80;76.40
24217;DHT22;12356;49.386;8.688;2022-12-24T09:30:10;11.80;75.40
24217;DHT22;12356;49.386;8.688;2022-12-24T09:32:42;11.80;75.60
24217;DHT22;12356;49.386;8.688;2022-12-24T09:35:13;11.80;76.10
24217;DHT22;12356;49.386;8.688;2022-12-24T09:37:43;11.70;75.10
24217;DHT22;12356;49.386;8.688;2022-12-24T09:40:24;11.80;75.50
24217;DHT22;12356;49.386;8.688;2022-12-24T09:42:59;11.80;76.20
24217;DHT22;12356;49.386;8.688;2022-12-24T09:45:40;11.80;75.30
24217;DHT22;12356;49.386;8.688;2022-12-24T09:48:16;11.90;75.40
24217;DHT22;12356;49.386;8.688;2022-12-24T09:53:54;12.00;73.60
24217;DHT22;12356;49.386;8.688;2022-12-24T09:56:29;12.00;73.80
24217;DHT22;12356;49.386;8.688;2022-12-24T09:59:04;12.00;73.90
24217;DHT22;12356;49.386;8.688;2022-12-24T10:01:35;12.00;73.40
24217;DHT22;12356;49.386;8.688;2022-12-24T10:04:14;12.00;72.90
24217;DHT22;12356;49.386;8.688;2022-12-24T10:06:50;12.10;73.60
24217;DHT22;12356;49.386;8.688;2022-12-24T10:12:08;12.10;72.80
24217;DHT22;12356;49.386;8.688;2022-12-24T10:18:01;12.10;70.60
24217;DHT22;12356;49.386;8.688;2022-12-24T10:20:52;12.20;70.50
24217;DHT22;12356;49.386;8.688;2022-12-24T10:23:31;12.20;70.30
24217;DHT22;12356;49.386;8.688;2022-12-24T10:26:23;12.20;71.10
24217;DHT22;12356;49.386;8.688;2022-12-24T10:29:00;12.30;72.00
24217;DHT22;12356;49.386;8.688;2022-12-24T10:31:35;12.20;71.50
24217;DHT22;12356;49.386;8.688;2022-12-24T10:34:16;12.30;71.50
24217;DHT22;12356;49.386;8.688;2022-12-24T10:36:48;12.30;71.10
24217;DHT22;12356;49.386;8.688;2022-12-24T10:39:25;12.40;71.50
24217;DHT22;12356;49.386;8.688;2022-12-24T10:41:58;12.40;70.50
24217;DHT22;12356;49.386;8.688;2022-12-24T10:44:31;12.40;70.20
24217;DHT22;12356;49.386;8.688;2022-12-24T10:47:04;12.50;70.20
24217;DHT22;12356;49.386;8.688;2022-12-24T10:49:48;12.50;69.80
24217;DHT22;12356;49.386;8.688;2022-12-24T10:52:24;12.50;68.40
24217;DHT22;12356;49.386;8.688;2022-12-24T10:55:26;12.50;67.10
24217;DHT22;12356;49.386;8.688;2022-12-24T10:58:04;12.50;67.60
24217;DHT22;12356;49.386;8.688;2022-12-24T11:00:36;12.50;68.90
24217;DHT22;12356;49.386;8.688;2022-12-24T11:05:41;12.50;68.80
24217;DHT22;12356;49.386;8.688;2022-12-24T11:08:17;12.50;68.80
24217;DHT22;12356;49.386;8.688;2022-12-24T11:10:58;12.50;69.60
24217;DHT22;12356;49.386;8.688;2022-12-24T11:13:32;12.50;69.40
24217;DHT22;12356;49.386;8.688;2022-12-24T11:18:37;12.50;68.70
24217;DHT22;12356;49.386;8.688;2022-12-24T11:21:22;12.50;68.60
24217;DHT22;12356;49.386;8.688;2022-12-24T11:23:59;12.50;67.40
24217;DHT22;12356;49.386;8.688;2022-12-24T11:26:33;12.60;67.60
24217;DHT22;12356;49.386;8.688;2022-12-24T11:29:22;12.60;67.60
24217;DHT22;12356;49.386;8.688;2022-12-24T11:32:20;12.60;68.40
24217;DHT22;12356;49.386;8.688;2022-12-24T11:34:51;12.50;69.50
24217;DHT22;12356;49.386;8.688;2022-12-24T11:37:23;12.50;69.50
24217;DHT22;12356;49.386;8.688;2022-12-24T11:39:58;12.50;69.10
24217;DHT22;12356;49.386;8.688;2022-12-24T11:42:31;12.50;68.50
24217;DHT22;12356;49.386;8.688;2022-12-24T11:45:06;12.50;69.20
24217;DHT22;12356;49.386;8.688;2022-12-24T11:47:39;12.60;68.40
24217;DHT22;12356;49.386;8.688;2022-12-24T11:50:34;12.60;68.50
24217;DHT22;12356;49.386;8.688;2022-12-24T11:53:18;12.60;67.90
24217;DHT22;12356;49.386;8.688;2022-12-24T11:55:58;12.60;68.10
24217;DHT22;12356;49.386;8.688;2022-12-24T11:58:36;12.70;68.50
24217;DHT22;12356;49.386;8.688;2022-12-24T12:01:22;12.60;68.70
24217;DHT22;12356;49.386;8.688;2022-12-24T12:03:57;12.60;68.60
24217;DHT22;12356;49.386;8.688;2022-12-24T12:06:54;12.60;68.70
24217;DHT22;12356;49.386;8.688;2022-12-24T12:09:30;12.60;69.50
24217;DHT22;12356;49.386;8.688;2022-12-24T12:12:20;12.60;69.30
24217;DHT22;12356;49.386;8.688;2022-12-24T12:14:59;12.60;68.90
24217;DHT22;12356;49.386;8.688;2022-12-24T12:18:20;12.60;69.40
24217;DHT22;12356;49.386;8.688;2022-12-24T12:21:03;12.50;68.90
24217;DHT22;12356;49.386;8.688;2022-12-24T12:23:41;12.50;69.50
24217;DHT22;12356;49.386;8.688;2022-12-24T12:26:23;12.60;68.70
24217;DHT22;12356;49.386;8.688;2022-12-24T12:29:00;12.60;68.20
24217;DHT22;12356;49.386;8.688;2022-12-24T12:31:40;12.60;68.30
24217;DHT22;12356;49.386;8.688;2022-12-24T12:34:19;12.60;69.30
24217;DHT22;12356;49.386;8.688;2022-12-24T12:36:58;12.70;68.90
24217;DHT22;12356;49.386;8.688;2022-12-24T12:39:31;12.80;68.50
24217;DHT22;12356;49.386;8.688;2022-12-24T12:42:30;12.80;67.60
24217;DHT22;12356;49.386;8.688;2022-12-24T12:51:08;12.80;66.40
24217;DHT22;12356;49.386;8.688;2022-12-24T12:56:44;12.70;65.70
24217;DHT22;12356;49.386;8.688;2022-12-24T12:59:19;12.70;65.30
24217;DHT22;12356;49.386;8.688;2022-12-24T13:19:08;12.60;66.30
24217;DHT22;12356;49.386;8.688;2022-12-24T13:21:44;12.60;66.70
24217;DHT22;12356;49.386;8.688;2022-12-24T13:27:05;12.50;67.10
24217;DHT22;12356;49.386;8.688;2022-12-24T13:29:51;12.60;67.50
24217;DHT22;12356;49.386;8.688;2022-12-24T13:35:01;12.60;67.20
24217;DHT22;12356;49.386;8.688;2022-12-24T13:37:33;12.50;67.10
24217;DHT22;12356;49.386;8.688;2022-12-24T13:42:48;12.60;67.60
24217;DHT22;12356;49.386;8.688;2022-12-24T13:48:24;12.50;68.20
24217;DHT22;12356;49.386;8.688;2022-12-24T13:50:59;12.40;69.40
24217;DHT22;12356;49.386;8.688;2022-12-24T13:53:37;12.50;70.50
24217;DHT22;12356;49.386;8.688;2022-12-24T13:56:21;12.40;71.40
24217;DHT22;12356;49.386;8.688;2022-12-24T13:59:54;12.40;72.40
24217;DHT22;12356;49.386;8.688;2022-12-24T14:02:00;12.30;74.10
24217;DHT22;12356;49.386;8.688;2022-12-24T14:04:34;12.30;74.70
24217;DHT22;12356;49.386;8.688;2022-12-24T14:07:05;12.40;74.00
24217;DHT22;12356;49.386;8.688;2022-12-24T14:09:38;12.20;73.90
24217;DHT22;12356;49.386;8.688;2022-12-24T14:12:32;12.20;74.40
24217;DHT22;12356;49.386;8.688;2022-12-24T14:18:22;12.20;75.50
24217;DHT22;12356;49.386;8.688;2022-12-24T14:20:55;12.20;77.10
24217;DHT22;12356;49.386;8.688;2022-12-24T14:23:40;12.10;78.10
24217;DHT22;12356;49.386;8.688;2022-12-24T14:26:15;12.10;79.10
24217;DHT22;12356;49.386;8.688;2022-12-24T14:29:00;12.20;80.10
24217;DHT22;12356;49.386;8.688;2022-12-24T14:31:33;12.20;80.80
24217;DHT22;12356;49.386;8.688;2022-12-24T14:34:11;12.20;81.60
24217;DHT22;12356;49.386;8.688;2022-12-24T14:36:43;12.10;81.30
24217;DHT22;12356;49.386;8.688;2022-12-24T14:39:32;12.10;81.30
24217;DHT22;12356;49.386;8.688;2022-12-24T14:42:25;12.00;81.90
24217;DHT22;12356;49.386;8.688;2022-12-24T14:48:12;12.10;82.60
24217;DHT22;12356;49.386;8.688;2022-12-24T14:54:05;12.10;83.20
24217;DHT22;12356;49.386;8.688;2022-12-24T14:56:37;12.10;83.00
24217;DHT22;12356;49.386;8.688;2022-12-24T14:59:16;12.00;82.40
24217;DHT22;12356;49.386;8.688;2022-12-24T15:01:47;11.90;81.90
24217;DHT22;12356;49.386;8.688;2022-12-24T15:04:18;11.90;81.20
24217;DHT22;12356;49.386;8.688;2022-12-24T15:06:53;11.90;81.30
24217;DHT22;12356;49.386;8.688;2022-12-24T15:09:28;11.90;81.10
24217;DHT22;12356;49.386;8.688;2022-12-24T15:12:01;11.80;81.40
24217;DHT22;12356;49.386;8.688;2022-12-24T15:14:41;11.90;80.80
24217;DHT22;12356;49.386;8.688;2022-12-24T15:17:12;11.80;80.70
24217;DHT22;12356;49.386;8.688;2022-12-24T15:19:46;11.80;80.90
24217;DHT22;12356;49.386;8.688;2022-12-24T15:22:28;11.80;80.90
24217;DHT22;12356;49.386;8.688;2022-12-24T15:24:59;11.70;80.90
24217;DHT22;12356;49.386;8.688;2022-12-24T15:27:32;11.60;80.80
24217;DHT22;12356;49.386;8.688;2022-12-24T15:30:14;11.60;81.00
24217;DHT22;12356;49.386;8.688;2022-12-24T15:32:46;11.60;81.40
24217;DHT22;12356;49.386;8.688;2022-12-24T15:38:05;11.60;82.20
24217;DHT22;12356;49.386;8.688;2022-12-24T15:40:38;11.50;83.30
24217;DHT22;12356;49.386;8.688;2022-12-24T15:43:08;11.50;83.00
24217;DHT22;12356;49.386;8.688;2022-12-24T15:45:43;11.50;83.20
24217;DHT22;12356;49.386;8.688;2022-12-24T15:48:24;11.50;84.00
24217;DHT22;12356;49.386;8.688;2022-12-24T15:51:01;11.50;83.20
24217;DHT22;12356;49.386;8.688;2022-12-24T15:53:40;11.50;83.40
24217;DHT22;12356;49.386;8.688;2022-12-24T15:56:34;11.40;83.00
24217;DHT22;12356;49.386;8.688;2022-12-24T15:59:12;11.50;83.40
24217;DHT22;12356;49.386;8.688;2022-12-24T16:01:50;11.50;83.20
24217;DHT22;12356;49.386;8.688;2022-12-24T16:04:24;11.50;83.50
24217;DHT22;12356;49.386;8.688;2022-12-24T16:09:44;11.50;84.20
24217;DHT22;12356;49.386;8.688;2022-12-24T16:12:23;11.60;85.30
24217;DHT22;12356;49.386;8.688;2022-12-24T16:14:57;11.50;85.00
24217;DHT22;12356;49.386;8.688;2022-12-24T16:17:31;11.60;85.20
24217;DHT22;12356;49.386;8.688;2022-12-24T16:20:06;11.50;84.90
24217;DHT22;12356;49.386;8.688;2022-12-24T16:22:46;11.50;85.40
24217;DHT22;12356;49.386;8.688;2022-12-24T16:27:50;11.40;86.00
24217;DHT22;12356;49.386;8.688;2022-12-24T16:30:22;11.40;86.30
24217;DHT22;12356;49.386;8.688;2022-12-24T16:32:52;11.40;86.30
24217;DHT22;12356;49.386;8.688;2022-12-24T16:35:29;11.40;86.30
24217;DHT22;12356;49.386;8.688;2022-12-24T16:38:05;11.50;86.60
24217;DHT22;12356;49.386;8.688;2022-12-24T16:40:36;11.40;86.50
24217;DHT22;12356;49.386;8.688;2022-12-24T16:43:09;11.50;86.70
24217;DHT22;12356;49.386;8.688;2022-12-24T16:46:03;11.50;86.70
24217;DHT22;12356;49.386;8.688;2022-12-24T16:48:36;11.50;87.20
24217;DHT22;12356;49.386;8.688;2022-12-24T16:51:07;11.50;87.20
24217;DHT22;12356;49.386;8.688;2022-12-24T16:53:38;11.50;87.20
24217;DHT22;12356;49.386;8.688;2022-12-24T16:56:08;11.60;87.20
24217;DHT22;12356;49.386;8.688;2022-12-24T16:58:39;11.50;87.20
24217;DHT22;12356;49.386;8.688;2022-12-24T17:01:09;11.50;86.70
24217;DHT22;12356;49.386;8.688;2022-12-24T17:03:40;11.40;87.10
24217;DHT22;12356;49.386;8.688;2022-12-24T17:06:11;11.40;87.10
24217;DHT22;12356;49.386;8.688;2022-12-24T17:08:41;11.40;87.10
24217;DHT22;12356;49.386;8.688;2022-12-24T17:11:12;11.40;87.10
24217;DHT22;12356;49.386;8.688;2022-12-24T17:13:43;11.40;87.10
24217;DHT22;12356;49.386;8.688;2022-12-24T17:16:16;11.40;87.20
24217;DHT22;12356;49.386;8.688;2022-12-24T17:18:47;11.40;87.10
24217;DHT22;12356;49.386;8.688;2022-12-24T17:21:19;11.40;87.10
24217;DHT22;12356;49.386;8.688;2022-12-24T17:23:50;11.40;87.20
24217;DHT22;12356;49.386;8.688;2022-12-24T17:26:21;11.40;87.20
24217;DHT22;12356;49.386;8.688;2022-12-24T17:28:52;11.40;87.30
24217;DHT22;12356;49.386;8.688;2022-12-24T17:31:24;11.40;87.20
24217;DHT22;12356;49.386;8.688;2022-12-24T17:33:55;11.40;87.80
24217;DHT22;12356;49.386;8.688;2022-12-24T17:36:25;11.40;87.10
24217;DHT22;12356;49.386;8.688;2022-12-24T17:38:56;11.40;87.10
24217;DHT22;12356;49.386;8.688;2022-12-24T17:41:27;11.30;87.00
24217;DHT22;12356;49.386;8.688;2022-12-24T17:43:57;11.30;87.70
24217;DHT22;12356;49.386;8.688;2022-12-24T17:46:28;11.30;87.50
24217;DHT22;12356;49.386;8.688;2022-12-24T17:48:58;11.30;87.10
24217;DHT22;12356;49.386;8.688;2022-12-24T17:51:29;11.30;87.00
24217;DHT22;12356;49.386;8.688;2022-12-24T17:54:03;11.30;87.10
24217;DHT22;12356;49.386;8.688;2022-12-24T17:56:34;11.30;87.20